Ikke nødvendig med spesiell oppmerksomhet.   -   Ingen advarsler for øyeblikket

METAR Rapporter

 

ENZV - Stavanger
Oppdatert: 16/10/2018 23:20
hovedsaklig skyet
hovedsaklig skyet
 Vind fra SSØ
Vind: SSØ 28 km/h
Temperatur: 12°C
Duggpunkt: 9°C
Fuktighet: 82%
Barometer: 1013 hPa
Skyet: hovedsaklig skyet
Sikt: 10 km
2018/10/16 21:20 ENZV 162120Z 15015KT 9999 7000E FEW005 BKN017 12/09 Q1013
ENBR - Bergen
Oppdatert: 16/10/2018 23:20
Light drizzle, mostly cloudy
Light drizzle, mostly cloudy
 Vind fra SSØ
Vind: SSØ 22 km/h
Temperatur: 10°C
Vindkjøling: 7°C
Duggpunkt: 9°C
Fuktighet: 94%
Barometer: 1010 hPa
Oversikt: Yr
Skyet: hovedsaklig skyet
Sikt: 10 km
2018/10/16 21:20 ENBR 162120Z 16012KT 9999 -DZ FEW005 SCT010 BKN014 10/09 Q1010 RMK WIND 1200FT 15026KT
 
ENHD - Haugesund
Oppdatert: 16/10/2018 23:20
Light rain, overcast
Light rain, overcast
 Vind fra SSØ
Vind: SSØ 31 km/h
Temperatur: 11°C
Duggpunkt: 10°C
Fuktighet: 94%
Barometer: 1011 hPa
Oversikt: lett regn
Skyet: overskyet
Sikt: 4 km
2018/10/16 21:20 ENHD 162120Z AUTO 16017KT 4300 -RA FEW008/// OVC012/// 11/10 Q1011
ENCN - Kristiansand
Oppdatert: 16/10/2018 23:20
hovedsaklig skyet
hovedsaklig skyet
 Vind fra NØ
Vind: NØ 4 km/h
Temperatur: 10°C
Duggpunkt: 10°C
Fuktighet: 100%
Barometer: 1016 hPa
Skyet: hovedsaklig skyet
Sikt: 6 km
2018/10/16 21:20 ENCN 162120Z AUTO 05002KT 6000 FEW012/// SCT015/// BKN018/// 10/10 Q1016 REDZ
 
ENBO - Bodø
Oppdatert: 16/10/2018 23:20
klart
klart
 Vind fra Ø
Vind: Ø 15 km/h
Temperatur: 9°C
Vindkjøling: 7°C
Duggpunkt: 4°C
Fuktighet: 71%
Barometer: 1011 hPa
Oversikt: klart
Sikt: greater than 10 km
2018/10/16 21:20 ENBO 162120Z 08008KT CAVOK 09/04 Q1011 NOSIG
ENKR - Kirkenes
Oppdatert: 16/10/2018 23:20
klart
klart
 Vind fra varies
Vind: varies 4 km/h
Temperatur: 3°C
Duggpunkt: 0°C
Fuktighet: 81%
Barometer: 1011 hPa
Oversikt: klart
Sikt: greater than 10 km
2018/10/16 21:20 ENKR 162120Z VRB02KT CAVOK 03/M00 Q1011 RMK WIND 731FT 25018KT
 
ENVA - Trondheim
Oppdatert: 16/10/2018 23:20
klart
klart
 Vind fra Ø
Vind: Ø 11 km/h
Temperatur: 11°C
Duggpunkt: 1°C
Fuktighet: 50%
Barometer: 1009 hPa
Oversikt: klart
Sikt: greater than 10 km
2018/10/16 21:20 ENVA 162120Z 10006KT 060V150 CAVOK 11/01 Q1009 RMK WIND 670FT 15015G27KT
ENGM - Oslo
Oppdatert: 16/10/2018 23:20
Mist, mostly cloudy
Mist, mostly cloudy
 Vind fra calm
Vind: Stille
Temperatur: 6°C
Duggpunkt: 5°C
Fuktighet: 93%
Barometer: 1016 hPa
Oversikt: Mist
Skyet: hovedsaklig skyet
Sikt: 2 km
2018/10/16 21:20 ENGM 162120Z 00000KT 2400 BR BKN002 06/05 Q1016